Time;durP1;ratioP1;P1;durP2;ratioP2;P2;SDS_P1;SDS_P2;PMS_P1;PMS_P2;Temp;Humidity;BMP_temperature;BMP_pressure;BME280_temperature;BME280_humidity;BME280_pressure;Samples;Min_cycle;Max_cycle;Signal;HPM_P1;HPM_P2
2022/07/18 00:01:54;;;;;;;;;;;;;;;19.49;44.30;102309.25;5066027;28;20241;-91
2022/07/18 00:04:19;;;;;;;;;;;;;;;19.51;44.13;102315.44;5067034;28;19924;-91
2022/07/18 00:06:44;;;;;;;;;;;;;;;19.49;44.58;102310.16;5063395;28;19936;-92
2022/07/18 00:09:09;;;;;;;;;;;;;;;19.46;44.28;102313.00;5064643;28;20402;-91
2022/07/18 00:11:35;;;;;;;;;;;;;;;19.44;44.46;102314.88;5063690;28;19955;-91
2022/07/18 00:14:00;;;;;;;;;;;;;;;19.44;44.69;102311.31;5060924;28;19925;-91
2022/07/18 00:16:25;;;;;;;;;;;;;;;19.39;45.31;102300.84;5066624;28;19924;-92
2022/07/18 00:18:50;;;;;;;;;;;;;;;19.23;45.78;102300.81;5066322;28;19912;-91
2022/07/18 00:21:16;;;;;;;;;;;;;;;19.14;46.29;102303.97;5062690;28;19968;-91
2022/07/18 00:23:41;;;;;;;;;;;;;;;19.06;45.96;102295.47;5066882;28;20436;-91
2022/07/18 00:26:06;;;;;;;;;;;;;;;19.09;45.95;102289.94;5065199;28;19952;-91
2022/07/18 00:28:31;;;;;;;;;;;;;;;19.02;46.11;102289.41;5060686;28;20416;-91
2022/07/18 00:30:57;;;;;;;;;;;;;;;19.04;45.90;102287.50;5065354;28;19924;-91
2022/07/18 00:33:22;;;;;;;;;;;;;;;19.02;45.85;102285.84;5066103;28;19920;-92
2022/07/18 00:35:47;;;;;;;;;;;;;;;19.01;45.96;102281.44;5065833;28;19962;-91
2022/07/18 00:38:13;;;;;;;;;;;;;;;18.84;47.09;102291.25;5050110;28;19977;-92
2022/07/18 00:40:38;;;;;;;;;;;;;;;18.80;48.09;102278.09;5065482;28;19920;-91
2022/07/18 00:43:03;;;;;;;;;;;;;;;18.78;47.27;102280.81;5037647;28;19924;-91
2022/07/18 00:45:29;;;;;;;;;;;;;;;18.72;48.03;102286.50;5066145;28;19920;-90
2022/07/18 00:47:54;;;;;;;;;;;;;;;18.68;48.53;102284.03;5065927;28;20022;-90
2022/07/18 00:50:20;;;;;;;;;;;;;;;18.65;48.30;102274.31;5047490;28;20427;-90
2022/07/18 00:52:45;;;;;;;;;;;;;;;18.57;47.85;102277.41;5040918;28;19921;-90
2022/07/18 00:55:10;;;;;;;;;;;;;;;18.55;46.67;102279.28;5037240;28;19917;-89
2022/07/18 00:57:36;;;;;;;;;;;;;;;18.57;46.38;102271.19;5046340;28;19920;-90
2022/07/18 01:02:47;;;;;;;;;;;;;;;18.56;46.24;102280.19;5044327;28;20429;-90
2022/07/18 01:05:12;;;;;;;;;;;;;;;18.54;46.36;102276.69;5045859;28;19917;-90
2022/07/18 01:07:37;;;;;;;;;;;;;;;18.50;46.78;102269.75;5046946;28;19921;-90
2022/07/18 01:10:04;;;;;;;;;;;;;;;18.50;48.22;102269.75;5045580;28;20312;-90
2022/07/18 01:12:29;;;;;;;;;;;;;;;18.46;48.70;102263.69;5045449;28;19928;-90
2022/07/18 01:14:56;;;;;;;;;;;;;;;18.41;48.45;102259.50;5044218;28;19921;-90
2022/07/18 01:17:21;;;;;;;;;;;;;;;18.37;46.64;102256.09;5040104;28;19926;-90
2022/07/18 01:19:47;;;;;;;;;;;;;;;18.30;46.81;102257.38;5044670;28;19924;-90
2022/07/18 01:22:13;;;;;;;;;;;;;;;18.11;47.10;102252.06;5045463;28;19917;-90
2022/07/18 01:24:38;;;;;;;;;;;;;;;18.07;47.49;102253.16;5044431;28;20011;-90
2022/07/18 01:27:04;;;;;;;;;;;;;;;18.07;47.58;102251.34;5045010;28;20019;-90
2022/07/18 01:29:29;;;;;;;;;;;;;;;18.04;47.48;102258.66;5046398;28;20647;-90
2022/07/18 01:31:54;;;;;;;;;;;;;;;18.02;48.09;102264.09;5045689;28;20015;-90
2022/07/18 01:34:21;;;;;;;;;;;;;;;18.01;47.92;102262.38;5044458;28;19931;-90
2022/07/18 01:36:46;;;;;;;;;;;;;;;17.99;47.75;102255.34;5055274;28;19916;-89
2022/07/18 01:39:11;;;;;;;;;;;;;;;17.96;47.94;102259.03;5058188;28;20066;-89
2022/07/18 01:41:36;;;;;;;;;;;;;;;17.95;48.47;102253.75;5057501;28;19917;-89
2022/07/18 01:44:02;;;;;;;;;;;;;;;17.94;48.85;102246.66;5052860;28;19967;-90
2022/07/18 01:46:28;;;;;;;;;;;;;;;17.89;48.04;102254.06;5047589;28;19917;-90
2022/07/18 01:48:53;;;;;;;;;;;;;;;17.89;47.68;102254.06;5046355;28;20015;-90
2022/07/18 01:51:18;;;;;;;;;;;;;;;17.77;48.16;102251.03;5045594;28;20363;-90
2022/07/18 01:53:53;;;;;;;;;;;;;;;17.70;48.25;102256.72;5068052;28;19930;-89
2022/07/18 01:56:18;;;;;;;;;;;;;;;17.68;48.55;102258.59;5066829;28;20356;-90
2022/07/18 01:58:43;;;;;;;;;;;;;;;17.70;49.38;102252.22;5065969;28;20011;-90
2022/07/18 02:01:08;;;;;;;;;;;;;;;17.63;49.91;102248.13;5065819;28;19955;-90
2022/07/18 02:03:33;;;;;;;;;;;;;;;17.55;48.72;102251.16;5070778;28;19916;-90
2022/07/18 02:05:59;;;;;;;;;;;;;;;17.54;48.63;102245.88;5069182;28;20275;-89
2022/07/18 02:08:24;;;;;;;;;;;;;;;17.50;48.32;102249.63;5067131;28;20351;-90
2022/07/18 02:10:49;;;;;;;;;;;;;;;17.46;48.78;102251.56;5067916;28;20019;-90
2022/07/18 02:13:16;;;;;;;;;;;;;;;17.49;49.64;102250.59;5068793;28;19916;-90
2022/07/18 02:15:41;;;;;;;;;;;;;;;17.47;50.33;102239.94;5051788;28;19978;-90
2022/07/18 02:18:07;;;;;;;;;;;;;;;17.49;49.95;102242.56;5050185;28;19916;-90
2022/07/18 02:20:32;;;;;;;;;;;;;;;17.42;49.46;102233.06;5060666;28;19974;-90
2022/07/18 02:22:58;;;;;;;;;;;;;;;17.39;50.21;102230.53;5062218;28;20272;-90
2022/07/18 02:25:23;;;;;;;;;;;;;;;17.40;50.09;102225.13;5044301;28;19963;-90
2022/07/18 02:27:48;;;;;;;;;;;;;;;17.37;49.07;102219.91;5064828;28;19917;-90
2022/07/18 02:30:14;;;;;;;;;;;;;;;17.24;49.96;102216.94;5059298;28;19912;-89
2022/07/18 02:32:39;;;;;;;;;;;;;;;17.15;49.52;102217.34;5066900;28;20002;-90
2022/07/18 02:35:06;;;;;;;;;;;;;;;17.09;49.45;102218.50;5065168;28;20151;-89
2022/07/18 02:37:31;;;;;;;;;;;;;;;17.11;49.77;102223.78;5065962;28;20307;-89
2022/07/18 02:39:56;;;;;;;;;;;;;;;17.07;49.86;102219.53;5063036;28;19928;-90
2022/07/18 02:42:21;;;;;;;;;;;;;;;17.05;49.59;102229.41;5060449;28;20032;-90
2022/07/18 02:44:47;;;;;;;;;;;;;;;16.99;49.80;102225.22;5068151;28;20374;-90
2022/07/18 02:47:12;;;;;;;;;;;;;;;16.99;49.78;102225.22;5059454;28;19916;-89
2022/07/18 02:49:38;;;;;;;;;;;;;;;16.97;50.96;102218.19;5067551;28;19919;-91
2022/07/18 02:52:05;;;;;;;;;;;;;;;16.97;50.91;102223.53;5057701;28;19929;-90
2022/07/18 02:54:32;;;;;;;;;;;;;;;16.98;51.08;102217.28;5066169;28;20043;-90
2022/07/18 02:56:57;;;;;;;;;;;;;;;16.96;50.09;102220.00;5065232;28;19920;-89
2022/07/18 02:59:22;;;;;;;;;;;;;;;16.91;50.26;102221.16;5068280;28;19955;-90
2022/07/18 03:01:49;;;;;;;;;;;;;;;16.86;50.74;102229.38;5066268;28;19924;-90
2022/07/18 03:04:14;;;;;;;;;;;;;;;16.78;52.11;102223.47;5049331;28;19916;-90
2022/07/18 03:06:39;;;;;;;;;;;;;;;16.73;51.15;102220.16;5066842;28;19917;-89
2022/07/18 03:09:04;;;;;;;;;;;;;;;16.68;51.90;102216.78;5067023;28;19986;-90
2022/07/18 03:11:30;;;;;;;;;;;;;;;16.51;51.85;102210.38;5047453;28;20370;-89
2022/07/18 03:13:55;;;;;;;;;;;;;;;16.37;51.95;102217.22;5065390;28;19960;-90
2022/07/18 03:16:20;;;;;;;;;;;;;;;16.26;52.66;102213.22;5065317;28;19916;-90
2022/07/18 03:18:45;;;;;;;;;;;;;;;16.10;53.41;102203.28;5065415;28;19916;-90
2022/07/18 03:21:10;;;;;;;;;;;;;;;16.07;53.16;102194.44;5063014;28;19920;-90
2022/07/18 03:23:36;;;;;;;;;;;;;;;16.20;53.85;102196.59;5064081;28;20019;-89
2022/07/18 03:26:01;;;;;;;;;;;;;;;16.26;53.45;102189.19;5064470;28;19924;-89
2022/07/18 03:28:26;;;;;;;;;;;;;;;16.27;52.57;102187.41;5066302;28;19977;-90
2022/07/18 03:30:52;;;;;;;;;;;;;;;16.28;51.17;102184.69;5066814;28;19924;-90
2022/07/18 03:33:17;;;;;;;;;;;;;;;16.32;50.56;102182.75;5065652;28;19924;-90
2022/07/18 03:35:42;;;;;;;;;;;;;;;16.33;50.96;102188.03;5048253;28;20295;-90
2022/07/18 03:38:07;;;;;;;;;;;;;;;16.29;51.29;102183.75;5062226;28;19939;-90
2022/07/18 03:40:32;;;;;;;;;;;;;;;16.25;50.91;102182.13;5067354;28;19920;-90
2022/07/18 03:42:58;;;;;;;;;;;;;;;16.22;51.14;102186.72;5066199;28;19916;-91
2022/07/18 03:45:23;;;;;;;;;;;;;;;16.18;51.02;102178.00;5065498;28;20289;-89
2022/07/18 03:47:48;;;;;;;;;;;;;;;16.15;52.49;102186.13;5066197;28;20011;-89
2022/07/18 03:50:13;;;;;;;;;;;;;;;16.04;53.16;102189.25;5066414;28;19967;-90
2022/07/18 03:52:39;;;;;;;;;;;;;;;15.92;55.03;102192.41;5040212;28;19928;-89
2022/07/18 03:55:04;;;;;;;;;;;;;;;15.88;53.15;102193.47;5046803;28;19923;-90
2022/07/18 03:57:29;;;;;;;;;;;;;;;15.93;53.38;102196.81;5050335;28;19913;-90
2022/07/18 03:59:54;;;;;;;;;;;;;;;16.01;53.63;102191.19;5066625;28;19924;-90
2022/07/18 04:02:20;;;;;;;;;;;;;;;16.04;53.41;102189.25;5046170;28;19916;-89
2022/07/18 04:04:45;;;;;;;;;;;;;;;16.07;53.16;102189.09;5063410;28;20356;-90
2022/07/18 04:07:10;;;;;;;;;;;;;;;16.10;52.30;102185.47;5065909;28;20230;-90
2022/07/18 04:09:35;;;;;;;;;;;;;;;16.13;53.70;102176.44;5067741;28;19967;-90
2022/07/18 04:12:00;;;;;;;;;;;;;;;16.16;52.89;102182.53;5066823;28;20288;-90
2022/07/18 04:14:26;;;;;;;;;;;;;;;16.20;52.93;102173.47;5048430;28;20382;-90
2022/07/18 04:16:51;;;;;;;;;;;;;;;16.22;52.47;102187.59;5065352;28;19931;-89
2022/07/18 04:19:17;;;;;;;;;;;;;;;16.25;52.25;102173.25;5064437;28;19932;-89
2022/07/18 04:21:42;;;;;;;;;;;;;;;16.25;53.84;102168.78;5046333;28;19912;-90
2022/07/18 04:24:08;;;;;;;;;;;;;;;16.23;54.89;102173.34;5062721;28;19923;-90
2022/07/18 04:26:33;;;;;;;;;;;;;;;16.18;54.10;102164.66;5056496;28;19948;-90
2022/07/18 04:28:58;;;;;;;;;;;;;;;16.23;54.74;102159.13;5062886;28;21110;-89
2022/07/18 04:31:23;;;;;;;;;;;;;;;16.28;54.70;102168.66;5063683;28;20379;-90
2022/07/18 04:33:48;;;;;;;;;;;;;;;16.25;55.39;102160.78;5066555;28;19917;-90
2022/07/18 04:36:14;;;;;;;;;;;;;;;16.20;55.46;102161.91;5048225;28;19940;-90
2022/07/18 04:38:39;;;;;;;;;;;;;;;16.23;55.71;102159.13;5049404;28;19966;-90
2022/07/18 04:41:05;;;;;;;;;;;;;;;16.25;54.81;102151.91;5065419;28;19927;-90
2022/07/18 04:43:30;;;;;;;;;;;;;;;16.14;55.04;102157.72;5061439;28;19916;-90
2022/07/18 04:45:56;;;;;;;;;;;;;;;16.05;55.41;102152.78;5065029;28;19917;-90
2022/07/18 04:48:21;;;;;;;;;;;;;;;16.08;54.61;102155.28;5064082;28;20552;-89
2022/07/18 04:50:46;;;;;;;;;;;;;;;16.16;52.26;102157.66;5048665;28;20019;-90
2022/07/18 04:53:11;;;;;;;;;;;;;;;16.23;53.17;102159.13;5041671;28;19929;-90
2022/07/18 04:55:37;;;;;;;;;;;;;;;16.32;52.29;102156.06;5066031;28;19956;-91
2022/07/18 04:58:02;;;;;;;;;;;;;;;16.40;52.12;102169.06;5061611;28;20378;-91
2022/07/18 05:00:27;;;;;;;;;;;;;;;16.43;53.22;102163.59;5066633;28;19929;-89
2022/07/18 05:02:54;;;;;;;;;;;;;;;16.43;52.77;102168.94;5066004;28;20298;-90
2022/07/18 05:05:20;;;;;;;;;;;;;;;16.44;54.96;102168.88;5066354;28;20330;-90
2022/07/18 05:07:46;;;;;;;;;;;;;;;16.39;55.15;102159.31;5070749;28;19923;-90
2022/07/18 05:10:12;;;;;;;;;;;;;;;16.36;52.63;102160.31;5068378;28;20405;-90
2022/07/18 05:12:38;;;;;;;;;;;;;;;16.46;54.70;102158.09;5067383;28;19917;-90
2022/07/18 05:15:05;;;;;;;;;;;;;;;16.54;54.10;102156.84;5050930;28;19928;-89
2022/07/18 05:17:30;;;;;;;;;;;;;;;16.60;53.95;102166.41;5065825;28;20394;-89
2022/07/18 05:19:55;;;;;;;;;;;;;;;16.71;53.57;102168.59;5051637;28;19920;-90
2022/07/18 05:22:20;;;;;;;;;;;;;;;16.82;54.32;102169.88;5068167;28;19920;-90
2022/07/18 05:24:45;;;;;;;;;;;;;;;16.92;54.40;102167.63;5068234;28;19927;-89
2022/07/18 05:27:11;;;;;;;;;;;;;;;17.00;55.43;102159.28;5066928;28;20303;-90
2022/07/18 05:29:36;;;;;;;;;;;;;;;17.04;55.34;102171.56;5051606;28;19916;-90
2022/07/18 05:32:01;;;;;;;;;;;;;;;17.06;55.52;102164.34;5065275;28;19931;-90
2022/07/18 05:34:27;;;;;;;;;;;;;;;17.12;55.85;102169.41;5067091;28;19921;-89
2022/07/18 05:36:52;;;;;;;;;;;;;;;17.16;55.57;102168.34;5050393;28;19920;-90
2022/07/18 05:39:17;;;;;;;;;;;;;;;17.21;55.84;102171.66;5066827;28;19924;-90
2022/07/18 05:41:42;;;;;;;;;;;;;;;17.32;55.64;102160.47;5068558;28;19916;-90
2022/07/18 05:44:07;;;;;;;;;;;;;;;17.44;55.05;102164.34;5049659;28;20261;-90
2022/07/18 05:46:33;;;;;;;;;;;;;;;17.54;54.78;102163.84;5067289;28;19970;-90
2022/07/18 05:48:58;;;;;;;;;;;;;;;17.67;53.97;102163.22;5064812;28;19995;-90
2022/07/18 05:51:23;;;;;;;;;;;;;;;17.79;54.29;102166.22;5066079;28;19920;-90
2022/07/18 05:53:49;;;;;;;;;;;;;;;17.86;54.13;102166.78;5064467;28;19920;-91
2022/07/18 05:56:14;;;;;;;;;;;;;;;17.96;54.00;102173.41;5065887;28;19917;-90
2022/07/18 05:58:39;;;;;;;;;;;;;;;18.00;55.87;102171.44;5068149;28;19924;-91
2022/07/18 06:01:04;;;;;;;;;;;;;;;18.04;55.34;102173.00;5047046;28;19978;-90
2022/07/18 06:03:30;;;;;;;;;;;;;;;18.14;54.88;102174.31;5065806;28;19924;-89
2022/07/18 06:05:55;;;;;;;;;;;;;;;18.22;51.85;102169.41;5067472;28;20401;-90
2022/07/18 06:08:20;;;;;;;;;;;;;;;18.32;53.00;102162.63;5064338;28;19926;-90
2022/07/18 06:10:45;;;;;;;;;;;;;;;18.45;55.21;102170.03;5066141;28;20170;-90
2022/07/18 06:13:10;;;;;;;;;;;;;;;18.56;52.41;102173.03;5068560;28;20365;-89
2022/07/18 06:15:36;;;;;;;;;;;;;;;18.68;54.75;102176.88;5061595;28;19917;-90
2022/07/18 06:18:01;;;;;;;;;;;;;;;18.79;51.04;102162.00;5047146;28;19970;-90
2022/07/18 06:20:26;;;;;;;;;;;;;;;18.89;51.54;102153.47;5070706;28;19920;-90
2022/07/18 06:22:51;;;;;;;;;;;;;;;19.01;55.02;102150.09;5066511;28;19954;-89
2022/07/18 06:25:17;;;;;;;;;;;;;;;19.15;54.94;102152.88;5070932;28;19912;-89
2022/07/18 06:27:42;;;;;;;;;;;;;;;19.29;54.84;102152.97;5059182;28;20397;-89
2022/07/18 06:30:09;;;;;;;;;;;;;;;19.40;50.68;102152.41;5063184;28;19913;-89
2022/07/18 06:32:34;;;;;;;;;;;;;;;19.50;53.66;102153.59;5062111;28;19917;-89
2022/07/18 06:34:59;;;;;;;;;;;;;;;19.64;54.40;102149.31;5070303;28;19918;-89
2022/07/18 06:37:24;;;;;;;;;;;;;;;19.75;54.06;102150.41;5063521;28;19943;-89
2022/07/18 06:48:58;;;;;;;;;;;;;;;20.21;52.46;102133.41;5058525;28;19927;-89
2022/07/18 06:51:24;;;;;;;;;;;;;;;20.31;53.05;102131.91;5065916;28;19916;-89
2022/07/18 06:53:49;;;;;;;;;;;;;;;20.46;50.95;102120.22;5060981;28;20336;-88
2022/07/18 06:56:15;;;;;;;;;;;;;;;20.61;51.38;102124.69;5065261;28;20493;-88
2022/07/18 06:58:40;;;;;;;;;;;;;;;20.76;51.62;102133.63;5075906;28;19924;-88
2022/07/18 07:01:06;;;;;;;;;;;;;;;20.83;51.67;102129.56;5077331;28;19979;-89
2022/07/18 07:03:32;;;;;;;;;;;;;;;20.96;51.24;102129.66;5074530;28;19922;-88
2022/07/18 07:05:57;;;;;;;;;;;;;;;21.11;50.33;102131.38;5070683;28;20007;-88
2022/07/18 07:08:22;;;;;;;;;;;;;;;21.25;49.98;102129.63;5067133;28;19920;-88
2022/07/18 07:10:48;;;;;;;;;;;;;;;21.42;50.16;102134.81;5064413;28;19927;-88
2022/07/18 07:13:13;;;;;;;;;;;;;;;21.53;48.93;102129.56;5065399;28;19920;-88
2022/07/18 07:15:40;;;;;;;;;;;;;;;21.65;49.12;102141.38;5069676;28;19995;-89
2022/07/18 07:18:05;;;;;;;;;;;;;;;21.76;48.82;102137.97;5045883;28;20213;-88
2022/07/18 07:20:30;;;;;;;;;;;;;;;21.88;49.02;102137.16;5065432;28;19975;-88
2022/07/18 07:22:57;;;;;;;;;;;;;;;22.09;49.27;102143.75;5062500;28;20385;-87
2022/07/18 07:25:23;;;;;;;;;;;;;;;22.27;48.78;102133.59;5065708;28;19927;-88
2022/07/18 07:27:48;;;;;;;;;;;;;;;22.62;47.21;102138.38;5062070;28;19921;-87
2022/07/18 07:30:14;;;;;;;;;;;;;;;22.77;47.22;102145.38;5068444;28;20361;-87
2022/07/18 07:32:41;;;;;;;;;;;;;;;23.04;46.67;102139.03;5046787;28;19939;-87
2022/07/18 07:35:10;;;;;;;;;;;;;;;23.15;46.63;102147.19;5065100;28;20284;-87
2022/07/18 07:37:35;;;;;;;;;;;;;;;23.37;46.32;102146.47;5063104;28;19962;-87
2022/07/18 07:40:01;;;;;;;;;;;;;;;23.86;44.86;102142.84;5068731;28;19920;-89
2022/07/18 07:42:26;;;;;;;;;;;;;;;24.28;44.53;102137.81;5047809;28;20020;-88
2022/07/18 07:44:51;;;;;;;;;;;;;;;24.66;43.94;102127.59;5067195;28;19916;-88
2022/07/18 07:47:16;;;;;;;;;;;;;;;25.01;43.24;102126.63;5065765;28;20272;-89
2022/07/18 07:49:41;;;;;;;;;;;;;;;25.28;42.51;102123.56;5060938;28;19951;-89
2022/07/18 07:52:07;;;;;;;;;;;;;;;25.82;40.75;102130.78;5066285;28;20429;-90
2022/07/18 07:54:32;;;;;;;;;;;;;;;26.26;40.25;102126.16;5067408;28;19920;-89
2022/07/18 07:56:57;;;;;;;;;;;;;;;26.83;40.23;102123.91;5060810;28;19912;-89
2022/07/18 07:59:23;;;;;;;;;;;;;;;27.32;39.29;102120.38;5063385;28;19924;-89
2022/07/18 08:01:48;;;;;;;;;;;;;;;27.68;37.41;102109.84;5068777;28;20379;-89
2022/07/18 08:04:13;;;;;;;;;;;;;;;28.14;35.48;102105.56;5045899;28;19924;-89
2022/07/18 08:06:38;;;;;;;;;;;;;;;28.67;36.53;102107.72;5062598;28;19935;-90
2022/07/18 08:09:03;;;;;;;;;;;;;;;29.26;34.71;102097.44;5048497;28;20001;-90
2022/07/18 08:11:29;;;;;;;;;;;;;;;29.61;33.14;102091.16;5062588;28;19916;-90
2022/07/18 08:13:54;;;;;;;;;;;;;;;29.95;34.95;102092.16;5065076;28;19920;-90
2022/07/18 08:16:19;;;;;;;;;;;;;;;30.37;33.64;102085.16;5061539;28;20298;-88
2022/07/18 08:18:44;;;;;;;;;;;;;;;30.89;33.07;102088.69;5068818;28;19967;-89
2022/07/18 08:21:09;;;;;;;;;;;;;;;31.19;31.12;102086.38;5059707;28;20434;-89
2022/07/18 08:23:36;;;;;;;;;;;;;;;31.24;29.87;102086.75;5064528;28;19927;-89
2022/07/18 08:26:01;;;;;;;;;;;;;;;31.45;30.31;102089.91;5066673;28;19916;-88
2022/07/18 08:28:26;;;;;;;;;;;;;;;31.48;27.74;102086.84;5060948;28;20003;-89
2022/07/18 08:30:51;;;;;;;;;;;;;;;31.67;25.67;102095.75;5058199;28;19916;-89
2022/07/18 08:33:17;;;;;;;;;;;;;;;32.07;28.82;102088.59;5062129;28;19921;-90
2022/07/18 08:35:42;;;;;;;;;;;;;;;32.63;28.65;102103.19;5049611;28;19955;-92
2022/07/18 08:38:07;;;;;;;;;;;;;;;32.85;27.94;102096.97;5061040;28;19967;-90
2022/07/18 08:40:32;;;;;;;;;;;;;;;33.25;27.62;102101.41;5062129;28;20375;-90
2022/07/18 08:42:58;;;;;;;;;;;;;;;33.44;25.01;102108.34;5066958;28;19921;-89
2022/07/18 08:45:24;;;;;;;;;;;;;;;33.33;25.85;102107.88;5065785;28;20414;-90
2022/07/18 08:47:49;;;;;;;;;;;;;;;33.55;25.57;102109.81;5068692;28;20333;-89
2022/07/18 08:50:15;;;;;;;;;;;;;;;33.93;26.19;102107.97;5048674;28;19927;-90
2022/07/18 08:52:40;;;;;;;;;;;;;;;34.36;25.39;102102.75;5064971;28;19927;-90
2022/07/18 08:55:08;;;;;;;;;;;;;;;34.53;22.72;102098.00;5044662;28;20198;-89
2022/07/18 08:57:34;;;;;;;;;;;;;;;34.44;24.67;102097.19;5068313;28;19989;-89
2022/07/18 08:59:59;;;;;;;;;;;;;;;34.54;24.29;102099.69;5050203;28;19924;-90
2022/07/18 09:02:27;;;;;;;;;;;;;;;34.25;24.16;102106.00;5063548;28;19962;-91
2022/07/18 09:04:53;;;;;;;;;;;;;;;34.32;24.80;102095.09;5068474;28;20322;-90
2022/07/18 09:07:31;;;;;;;;;;;;;;;34.47;24.29;102096.88;5064301;28;19971;-90
2022/07/18 09:09:57;;;;;;;;;;;;;;;34.63;24.45;102108.69;5066608;28;19924;-90
2022/07/18 09:12:23;;;;;;;;;;;;;;;34.68;23.93;102098.84;5067043;28;20375;-91
2022/07/18 09:14:49;;;;;;;;;;;;;;;34.63;21.15;102092.22;5070546;28;19926;-90
2022/07/18 09:17:24;;;;;;;;;;;;;;;34.38;21.60;102091.63;5068998;28;19916;-89
2022/07/18 09:20:00;;;;;;;;;;;;;;;34.19;24.22;102091.13;5060712;28;19960;-91
2022/07/18 09:22:27;;;;;;;;;;;;;;;34.11;22.28;102098.59;5067730;28;20401;-90
2022/07/18 09:24:52;;;;;;;;;;;;;;;33.60;24.50;102092.81;5065413;28;20502;-90
2022/07/18 09:27:24;;;;;;;;;;;;;;;33.70;24.38;102096.16;5068250;28;19916;-90
2022/07/18 09:30:05;;;;;;;;;;;;;;;33.78;24.89;102098.00;5066069;28;19920;-90
2022/07/18 09:32:30;;;;;;;;;;;;;;;33.86;25.01;102095.19;5066864;28;19924;-88
2022/07/18 09:34:55;;;;;;;;;;;;;;;33.88;25.22;102101.34;5069479;28;20598;-90
2022/07/18 09:37:21;;;;;;;;;;;;;;;33.69;25.22;102098.06;5065620;28;19920;-90
2022/07/18 09:39:46;;;;;;;;;;;;;;;33.74;22.93;102103.00;5066107;28;20382;-89
2022/07/18 09:42:18;;;;;;;;;;;;;;;33.71;25.93;102104.19;5066285;28;20490;-90
2022/07/18 09:44:56;;;;;;;;;;;;;;;33.88;24.37;102102.19;5051099;28;20014;-90
2022/07/18 09:47:21;;;;;;;;;;;;;;;33.79;24.55;102099.69;5050608;28;20314;-90
2022/07/18 09:49:46;;;;;;;;;;;;;;;33.78;23.83;102096.09;5065943;28;19921;-90
2022/07/18 09:52:11;;;;;;;;;;;;;;;33.90;25.38;102089.16;5069845;28;20201;-90
2022/07/18 09:54:37;;;;;;;;;;;;;;;34.17;24.50;102092.34;5073282;28;20005;-90
2022/07/18 09:57:02;;;;;;;;;;;;;;;34.29;24.56;102092.75;5071039;28;19916;-89
2022/07/18 09:59:28;;;;;;;;;;;;;;;34.22;24.75;102087.97;5068965;28;19924;-90
2022/07/18 10:01:53;;;;;;;;;;;;;;;34.07;25.12;102089.00;5071417;28;19916;-90
2022/07/18 10:04:18;;;;;;;;;;;;;;;34.08;24.91;102087.97;5068891;28;19958;-89
2022/07/18 10:06:44;;;;;;;;;;;;;;;34.39;24.04;102079.59;5068262;28;19916;-90
2022/07/18 10:09:09;;;;;;;;;;;;;;;34.70;23.65;102090.41;5069735;28;20010;-89
2022/07/18 10:11:35;;;;;;;;;;;;;;;34.39;22.24;102096.91;5068088;28;19978;-90
2022/07/18 10:14:00;;;;;;;;;;;;;;;34.32;22.16;102087.72;5069519;28;19959;-90
2022/07/18 10:16:25;;;;;;;;;;;;;;;34.45;24.21;102087.91;5065695;28;20442;-88
2022/07/18 10:18:50;;;;;;;;;;;;;;;34.10;23.10;102091.41;5052015;28;19916;-90
2022/07/18 10:21:19;;;;;;;;;;;;;;;33.89;23.22;102079.19;5050552;28;19924;-89
2022/07/18 10:23:45;;;;;;;;;;;;;;;34.18;23.11;102086.69;5067143;28;20274;-89
2022/07/18 10:26:13;;;;;;;;;;;;;;;34.35;23.78;102086.50;5068728;28;19996;-90
2022/07/18 10:28:56;;;;;;;;;;;;;;;34.72;21.62;102080.94;5065698;28;19924;-89
2022/07/18 10:31:21;;;;;;;;;;;;;;;35.01;22.80;102096.53;5064145;28;19916;-89
2022/07/18 10:33:48;;;;;;;;;;;;;;;35.32;22.82;102089.09;5061104;28;19921;-89
2022/07/18 10:36:17;;;;;;;;;;;;;;;35.54;21.98;102085.34;5065897;28;19920;-89
2022/07/18 10:39:01;;;;;;;;;;;;;;;35.61;22.22;102077.13;5063052;28;20164;-89
2022/07/18 10:41:26;;;;;;;;;;;;;;;36.26;22.54;102076.84;5066454;28;20034;-88
2022/07/18 10:43:51;;;;;;;;;;;;;;;36.51;21.59;102068.13;5066272;28;20007;-89
2022/07/18 10:46:16;;;;;;;;;;;;;;;36.31;20.88;102076.22;5067070;28;20045;-89
2022/07/18 10:48:42;;;;;;;;;;;;;;;35.75;22.15;102076.19;5060752;28;19917;-89
2022/07/18 10:51:08;;;;;;;;;;;;;;;35.64;20.00;102076.75;5061222;28;20439;-89
2022/07/18 10:53:52;;;;;;;;;;;;;;;35.60;20.20;102075.44;5045838;28;19940;-89
2022/07/18 10:56:17;;;;;;;;;;;;;;;35.60;22.03;102073.53;5059961;28;19921;-90
2022/07/18 10:58:42;;;;;;;;;;;;;;;35.79;21.12;102072.00;5068787;28;19974;-89
2022/07/18 11:01:13;;;;;;;;;;;;;;;35.38;21.25;102075.38;5062791;28;19982;-89
2022/07/18 11:03:38;;;;;;;;;;;;;;;35.13;20.54;102061.16;5067747;28;19916;-89
2022/07/18 11:06:03;;;;;;;;;;;;;;;35.19;21.40;102073.28;5054412;28;20391;-89
2022/07/18 11:08:33;;;;;;;;;;;;;;;35.21;21.88;102072.06;5070929;28;20204;-89
2022/07/18 11:11:01;;;;;;;;;;;;;;;35.09;22.12;102059.84;5068125;28;20015;-89
2022/07/18 11:13:31;;;;;;;;;;;;;;;35.54;21.92;102057.81;5066367;28;19920;-89
2022/07/18 11:16:16;;;;;;;;;;;;;;;35.87;21.67;102055.34;5066222;28;20125;-88
2022/07/18 11:18:50;;;;;;;;;;;;;;;36.25;21.38;102055.03;5062622;28;20403;-89
2022/07/18 11:21:24;;;;;;;;;;;;;;;35.74;20.54;102058.00;5072225;28;19921;-89
2022/07/18 11:23:51;;;;;;;;;;;;;;;35.58;21.77;102053.63;5061684;28;20525;-89
2022/07/18 11:26:18;;;;;;;;;;;;;;;35.94;22.00;102059.00;5066133;28;20402;-89
2022/07/18 11:28:43;;;;;;;;;;;;;;;36.19;21.19;102047.56;5058695;28;19924;-90
2022/07/18 11:31:10;;;;;;;;;;;;;;;36.35;22.09;102047.25;5061937;28;19970;-90
2022/07/18 11:33:39;;;;;;;;;;;;;;;36.77;21.76;102037.09;5058077;28;20360;-91
2022/07/18 11:36:07;;;;;;;;;;;;;;;37.00;21.61;102039.53;5066985;28;19921;-90
2022/07/18 11:38:33;;;;;;;;;;;;;;;37.39;21.25;102038.78;5067565;28;19981;-90
2022/07/18 11:40:59;;;;;;;;;;;;;;;37.49;21.27;102038.34;5048581;28;20295;-90
2022/07/18 11:43:25;;;;;;;;;;;;;;;37.59;21.16;102037.94;5065866;28;19952;-90
2022/07/18 11:46:00;;;;;;;;;;;;;;;37.53;20.94;102042.41;5057826;28;20062;-90
2022/07/18 11:48:25;;;;;;;;;;;;;;;37.49;20.88;102032.84;5044375;28;19924;-91
2022/07/18 11:50:50;;;;;;;;;;;;;;;37.53;21.44;102031.38;5064363;28;19916;-90
2022/07/18 11:53:16;;;;;;;;;;;;;;;37.68;21.33;102033.91;5066060;28;19932;-90
2022/07/18 11:55:41;;;;;;;;;;;;;;;37.88;20.93;102033.94;5065959;28;19986;-89
2022/07/18 11:58:10;;;;;;;;;;;;;;;37.86;20.70;102039.66;5067771;28;20327;-91
2022/07/18 12:00:36;;;;;;;;;;;;;;;37.95;20.36;102032.00;5053856;28;19928;-90
2022/07/18 12:03:01;;;;;;;;;;;;;;;37.58;20.12;102025.22;5069578;28;19920;-89
2022/07/18 12:05:31;;;;;;;;;;;;;;;37.63;20.65;102020.75;5066897;28;19924;-90
2022/07/18 12:07:56;;;;;;;;;;;;;;;38.10;20.12;102023.47;5062272;28;19955;-91
2022/07/18 12:10:21;;;;;;;;;;;;;;;38.29;20.00;102023.47;5064160;28;19959;-90
2022/07/18 12:12:46;;;;;;;;;;;;;;;38.42;19.48;102016.19;5070722;28;20272;-90
2022/07/18 12:15:12;;;;;;;;;;;;;;;38.52;19.67;102023.00;5066870;28;19944;-90
2022/07/18 12:17:47;;;;;;;;;;;;;;;38.61;19.39;102018.03;5067825;28;20260;-91
2022/07/18 12:20:12;;;;;;;;;;;;;;;38.79;19.28;102017.34;5066862;28;19920;-91
2022/07/18 12:22:58;;;;;;;;;;;;;;;38.85;18.81;102026.69;5063490;28;19953;-90
2022/07/18 12:25:33;;;;;;;;;;;;;;;38.82;18.82;102021.59;5066649;28;22234;-91
2022/07/18 12:28:11;;;;;;;;;;;;;;;38.62;19.41;102014.22;5064443;28;19916;-92
2022/07/18 12:30:36;;;;;;;;;;;;;;;37.87;17.74;102015.69;5066088;28;19908;-92
2022/07/18 12:33:06;;;;;;;;;;;;;;;37.82;19.07;102005.25;5071005;28;19926;-91
2022/07/18 12:35:35;;;;;;;;;;;;;;;38.17;19.54;102000.31;5065473;28;19994;-92
2022/07/18 12:38:07;;;;;;;;;;;;;;;38.48;19.33;102002.38;5070911;28;19967;-92
2022/07/18 12:40:40;;;;;;;;;;;;;;;38.56;18.77;102004.03;5058876;28;19925;-92
2022/07/18 12:43:10;;;;;;;;;;;;;;;38.56;18.61;101997.66;5063629;28;19916;-90